Time;durP1;ratioP1;P1;durP2;ratioP2;P2;SDS_P1;SDS_P2;PMS_P1;PMS_P2;Temp;Humidity;BMP_temperature;BMP_pressure;BME280_temperature;BME280_humidity;BME280_pressure;Samples;Min_cycle;Max_cycle;Signal;HPM_P1;HPM_P2
2022/07/28 00:00:22;;;;;;;;;4.50;4.00;;;;;23.14;41.89;98805.59;5045517;28;45497;-54
2022/07/28 00:02:48;;;;;;;;;3.00;3.00;;;;;23.22;41.76;98816.47;5049093;28;45628;-53
2022/07/28 00:05:13;;;;;;;;;4.00;4.00;;;;;23.26;41.59;98812.50;5053192;28;45337;-54
2022/07/28 00:07:39;;;;;;;;;3.00;3.00;;;;;23.29;41.81;98806.78;5052304;28;46188;-53
2022/07/28 00:10:06;;;;;;;;;4.00;2.75;;;;;23.32;41.69;98809.19;5049422;28;45398;-53
2022/07/28 00:12:31;;;;;;;;;3.75;2.00;;;;;23.36;41.57;98798.97;5049482;28;45342;-53
2022/07/28 00:14:57;;;;;;;;;4.75;4.75;;;;;23.40;42.08;98791.47;5052862;28;45306;-53
2022/07/28 00:17:22;;;;;;;;;6.00;3.00;;;;;23.44;41.71;98803.63;5050374;28;46601;-53
2022/07/28 00:19:49;;;;;;;;;5.00;5.00;;;;;23.42;42.13;98798.41;5051390;28;45484;-54
2022/07/28 00:22:14;;;;;;;;;2.75;2.75;;;;;23.39;41.54;98798.69;5048277;28;45400;-53
2022/07/28 00:24:40;;;;;;;;;3.75;3.75;;;;;23.36;41.59;98795.44;5051459;28;45404;-53
2022/07/28 00:27:06;;;;;;;;;3.75;3.75;;;;;23.31;42.17;98795.88;5053171;28;46040;-51
2022/07/28 00:29:31;;;;;;;;;2.75;2.75;;;;;23.25;42.35;98791.97;5052659;28;45975;-53
2022/07/28 00:31:57;;;;;;;;;3.00;3.00;;;;;23.22;41.93;98794.94;5053202;28;45422;-50
2022/07/28 00:34:22;;;;;;;;;4.75;3.00;;;;;23.17;42.32;98791.00;5045556;28;45445;-51
2022/07/28 00:36:48;;;;;;;;;4.50;4.00;;;;;23.17;42.25;98788.31;5050599;28;46201;-50
2022/07/28 00:39:13;;;;;;;;;2.00;2.00;;;;;23.16;42.16;98794.69;5043263;28;45464;-53
2022/07/28 00:41:39;;;;;;;;;3.00;3.00;;;;;23.15;42.03;98801.91;5054085;28;45327;-53
2022/07/28 00:44:06;;;;;;;;;3.00;3.00;;;;;23.16;42.53;98800.91;5046266;28;45413;-53
2022/07/28 00:46:31;;;;;;;;;4.25;3.25;;;;;23.17;42.37;98799.94;5053466;28;47202;-53
2022/07/28 00:48:57;;;;;;;;;4.00;3.00;;;;;23.19;42.67;98799.78;5047905;28;45436;-52
2022/07/28 00:51:24;;;;;;;;;2.25;1.75;;;;;23.18;42.57;98808.84;5051709;28;45445;-53
2022/07/28 00:53:50;;;;;;;;;4.50;3.75;;;;;23.13;42.29;98808.44;5050616;28;45604;-53
2022/07/28 00:56:17;;;;;;;;;4.25;4.25;;;;;23.09;42.60;98815.13;5053825;28;45484;-53
2022/07/28 00:58:42;;;;;;;;;3.60;3.40;;;;;23.07;42.43;98806.34;5050547;28;45428;-52
2022/07/28 01:01:09;;;;;;;;;4.00;4.00;;;;;23.05;42.50;98806.50;5047914;28;45468;-52
2022/07/28 01:03:39;;;;;;;;;3.50;3.50;;;;;23.03;42.62;98800.41;5048114;28;45597;-51
2022/07/28 01:06:13;;;;;;;;;3.25;3.25;;;;;23.02;42.52;98800.56;5054383;28;45499;-52
2022/07/28 01:09:00;;;;;;;;;3.00;3.00;;;;;22.99;43.06;98817.84;5046447;28;45430;-52
2022/07/28 01:11:33;;;;;;;;;3.00;3.00;;;;;22.98;42.79;98811.59;5048207;28;45435;-53
2022/07/28 01:14:16;;;;;;;;;3.25;3.25;;;;;22.97;43.28;98815.28;5046153;28;45326;-50
2022/07/28 01:17:31;;;;;;;;;5.00;3.00;;;;;22.97;42.90;98806.38;5053454;28;47131;-52
2022/07/28 01:20:27;;;;;;;;;5.25;5.25;;;;;22.93;42.99;98803.16;5046839;28;45565;-51
2022/07/28 01:23:11;;;;;;;;;5.25;5.25;;;;;22.92;43.50;98808.69;5040084;28;45795;-52
2022/07/28 01:26:20;;;;;;;;;3.00;3.00;;;;;22.93;43.82;98805.00;5048565;28;45648;-53
2022/07/28 01:29:03;;;;;;;;;5.00;5.00;;;;;22.92;43.67;98800.63;5047088;28;46510;-53
2022/07/28 01:31:39;;;;;;;;;6.50;6.00;;;;;22.91;43.31;98802.44;5041588;28;45392;-52
2022/07/28 01:34:09;;;;;;;;;7.50;5.50;;;;;22.89;43.46;98806.28;5048052;28;45480;-50
2022/07/28 01:36:41;;;;;;;;;6.00;5.50;;;;;22.87;43.98;98802.88;5045211;28;45554;-49
2022/07/28 01:39:08;;;;;;;;;3.25;3.25;;;;;22.85;43.90;98803.03;5054152;28;45571;-53
2022/07/28 01:41:37;;;;;;;;;4.00;3.25;;;;;22.86;44.11;98795.81;5057692;28;45467;-52
2022/07/28 01:44:11;;;;;;;;;4.75;4.00;;;;;22.86;44.10;98801.19;5052558;28;45424;-53
2022/07/28 01:46:38;;;;;;;;;4.50;4.50;;;;;22.84;43.91;98801.34;5057204;28;45514;-50
2022/07/28 01:49:06;;;;;;;;;5.00;5.00;;;;;22.85;43.66;98805.72;5051658;28;46420;-53
2022/07/28 01:51:33;;;;;;;;;4.50;4.00;;;;;22.85;43.54;98803.03;5057738;28;45348;-52
2022/07/28 01:54:01;;;;;;;;;6.00;5.00;;;;;22.87;43.53;98806.41;5053961;28;45511;-54
2022/07/28 01:56:29;;;;;;;;;6.75;5.00;;;;;22.86;43.83;98802.03;5057351;28;45572;-52
2022/07/28 01:58:58;;;;;;;;;7.00;5.25;;;;;22.84;43.96;98801.34;5050785;28;45490;-51
2022/07/28 02:01:25;;;;;;;;;5.75;4.25;;;;;22.83;44.41;98796.09;5053593;28;45413;-52
2022/07/28 02:03:55;;;;;;;;;4.25;4.25;;;;;22.77;44.51;98792.19;5045681;28;45372;-53
2022/07/28 02:06:21;;;;;;;;;4.00;4.00;;;;;22.72;44.94;98797.09;5052680;28;45354;-50
2022/07/28 02:08:49;;;;;;;;;3.50;3.50;;;;;22.66;44.60;98786.06;5049371;28;45519;-50
2022/07/28 02:14:00;;;;;;;;;3.50;3.50;;;;;22.48;44.53;98792.19;5052413;28;45353;-53
2022/07/28 02:16:29;;;;;;;;;4.00;4.00;;;;;22.42;44.64;98786.56;5056714;28;45400;-53
2022/07/28 02:18:56;;;;;;;;;5.50;3.00;;;;;22.37;44.44;98787.00;5050453;28;45594;-52
2022/07/28 02:21:24;;;;;;;;;4.50;4.25;;;;;22.34;44.73;98792.66;5057076;28;45469;-52
2022/07/28 02:23:52;;;;;;;;;2.50;2.50;;;;;22.32;45.09;98785.72;5050547;28;45436;-53
2022/07/28 02:26:22;;;;;;;;;2.75;2.75;;;;;22.29;44.83;98785.03;5056963;28;45588;-53
2022/07/28 02:28:51;;;;;;;;;5.00;4.25;;;;;22.28;44.80;98782.50;5050007;28;45697;-52
2022/07/28 02:31:27;;;;;;;;;3.80;3.40;;;;;22.25;45.33;98788.16;5054031;28;45441;-52
2022/07/28 02:33:59;;;;;;;;;4.25;3.25;;;;;22.19;45.51;98780.66;5046653;28;45432;-51
2022/07/28 02:36:29;;;;;;;;;2.50;2.50;;;;;22.14;45.64;98789.13;5048169;28;45944;-50
2022/07/28 02:39:06;;;;;;;;;4.75;3.50;;;;;22.12;45.61;98788.44;5047335;28;46385;-53
2022/07/28 02:41:36;;;;;;;;;2.75;2.75;;;;;22.12;45.80;98787.63;5049580;28;45436;-53
2022/07/28 02:44:11;;;;;;;;;5.25;4.00;;;;;22.14;45.44;98790.97;5054431;28;45293;-51
2022/07/28 02:46:42;;;;;;;;;4.00;4.00;;;;;22.15;45.40;98793.53;5047001;28;45495;-53
2022/07/28 02:49:13;;;;;;;;;3.25;2.50;;;;;22.16;46.17;98791.69;5053764;28;46264;-51
2022/07/28 02:51:41;;;;;;;;;5.00;4.75;;;;;22.14;45.53;98789.13;5056274;28;45596;-54
2022/07/28 02:54:08;;;;;;;;;4.25;4.25;;;;;22.15;45.53;98782.78;5051102;28;45465;-50
2022/07/28 02:56:34;;;;;;;;;4.00;4.00;;;;;22.16;46.49;98780.94;5056191;28;45432;-52
2022/07/28 02:59:01;;;;;;;;;4.00;4.00;;;;;22.16;46.31;98791.69;5050746;28;46745;-53
2022/07/28 03:01:27;;;;;;;;;6.00;4.75;;;;;22.12;46.14;98792.97;5055747;28;45353;-53
2022/07/28 03:03:53;;;;;;;;;3.50;3.50;;;;;22.06;46.66;98794.38;5053405;28;45309;-54
2022/07/28 03:06:21;;;;;;;;;5.00;5.00;;;;;21.98;46.61;98787.97;5055813;28;45557;-54
2022/07/28 03:08:49;;;;;;;;;5.00;4.00;;;;;21.93;46.39;98791.13;5051798;28;46068;-52
2022/07/28 03:11:14;;;;;;;;;4.50;4.50;;;;;21.93;46.96;98783.91;5056160;28;45337;-52
2022/07/28 03:13:40;;;;;;;;;5.25;4.25;;;;;21.94;46.71;98790.13;5048816;28;45363;-51
2022/07/28 03:16:06;;;;;;;;;3.25;3.00;;;;;21.93;46.54;98793.78;5055035;28;45633;-53
2022/07/28 03:18:32;;;;;;;;;4.75;4.75;;;;;21.87;46.58;98788.97;5051847;28;45411;-50
2022/07/28 03:20:58;;;;;;;;;4.25;3.75;;;;;21.85;47.00;98790.94;5056145;28;45500;-52
2022/07/28 03:23:28;;;;;;;;;5.00;4.50;;;;;21.81;46.74;98802.94;5049823;28;45643;-52
2022/07/28 03:25:58;;;;;;;;;4.25;4.25;;;;;21.78;47.22;98796.06;5055674;28;45405;-53
2022/07/28 03:28:25;;;;;;;;;5.75;4.50;;;;;21.78;46.81;98797.88;5048947;28;46484;-51
2022/07/28 03:30:56;;;;;;;;;2.80;2.60;;;;;21.73;46.75;98800.13;5055751;28;45484;-53
2022/07/28 03:33:22;;;;;;;;;4.50;4.25;;;;;21.68;46.87;98802.38;5047105;28;45460;-51
2022/07/28 03:35:51;;;;;;;;;4.00;4.00;;;;;21.62;47.19;98811.81;5052205;28;45413;-50
2022/07/28 03:38:28;;;;;;;;;4.00;4.00;;;;;21.58;47.06;98815.78;5043154;28;46326;-53
2022/07/28 03:40:55;;;;;;;;;4.00;4.00;;;;;21.59;47.60;98820.16;5052178;28;45464;-51
2022/07/28 03:43:23;;;;;;;;;5.75;4.50;;;;;21.56;47.42;98815.91;5043775;28;45598;-52
2022/07/28 03:45:49;;;;;;;;;5.75;5.75;;;;;21.57;47.66;98822.13;5049717;28;45419;-52
2022/07/28 03:48:15;;;;;;;;;4.00;3.50;;;;;21.54;48.00;98820.56;5049335;28;46137;-53
2022/07/28 03:50:41;;;;;;;;;4.75;2.25;;;;;21.49;47.45;98816.59;5047560;28;45445;-51
2022/07/28 03:53:18;;;;;;;;;4.50;4.00;;;;;21.44;47.81;98819.72;5051040;28;45463;-51
2022/07/28 03:55:49;;;;;;;;;3.75;3.75;;;;;21.43;47.91;98822.53;5053857;28;45408;-53
2022/07/28 03:58:14;;;;;;;;;5.00;5.00;;;;;21.40;47.61;98823.66;5048882;28;45493;-53
2022/07/28 04:00:40;;;;;;;;;5.00;5.00;;;;;21.37;48.33;98823.91;5043998;28;45396;-53
2022/07/28 04:03:05;;;;;;;;;5.00;5.00;;;;;21.36;47.82;98822.22;5049333;28;45448;-49
2022/07/28 04:05:31;;;;;;;;;4.50;4.00;;;;;21.35;48.22;98822.34;5041847;28;45579;-53
2022/07/28 04:07:56;;;;;;;;;7.50;5.25;;;;;21.33;48.43;98829.69;5050636;28;46206;-51
2022/07/28 04:10:21;;;;;;;;;5.00;5.00;;;;;21.31;48.57;98835.19;5047977;28;45372;-54
2022/07/28 04:12:48;;;;;;;;;7.25;5.25;;;;;21.30;48.48;98835.31;5052064;28;45799;-50
2022/07/28 04:15:14;;;;;;;;;5.00;4.75;;;;;21.30;48.56;98836.16;5052012;28;45413;-53
2022/07/28 04:17:40;;;;;;;;;6.25;6.00;;;;;21.30;48.92;98835.31;5050891;28;45383;-52
2022/07/28 04:20:07;;;;;;;;;5.00;5.00;;;;;21.31;48.59;98835.19;5053667;28;45458;-54
2022/07/28 04:22:32;;;;;;;;;6.00;6.00;;;;;21.31;48.51;98831.66;5049630;28;45398;-54
2022/07/28 04:24:58;;;;;;;;;6.00;6.00;;;;;21.30;48.41;98830.78;5046261;28;45405;-54
2022/07/28 04:27:24;;;;;;;;;5.75;5.75;;;;;21.30;48.44;98833.47;5049303;28;46518;-53
2022/07/28 04:29:49;;;;;;;;;6.00;5.00;;;;;21.30;48.99;98840.66;5050185;28;45487;-52
2022/07/28 04:32:14;;;;;;;;;5.00;5.00;;;;;21.29;48.96;98841.66;5051201;28;45447;-53
2022/07/28 04:34:40;;;;;;;;;6.50;6.00;;;;;21.27;48.84;98839.13;5047057;28;45432;-52
2022/07/28 04:37:05;;;;;;;;;6.00;5.00;;;;;21.26;49.14;98841.94;5051817;28;45459;-50
2022/07/28 04:39:31;;;;;;;;;7.25;7.25;;;;;21.26;49.84;98844.63;5043986;28;45531;-53
2022/07/28 04:41:56;;;;;;;;;5.00;5.00;;;;;21.28;49.12;98845.34;5049819;28;45557;-53
2022/07/28 04:44:21;;;;;;;;;6.00;6.00;;;;;21.27;49.45;98839.13;5047784;28;45437;-55
2022/07/28 04:46:47;;;;;;;;;6.75;6.75;;;;;21.28;49.61;98846.19;5034427;28;46469;-53
2022/07/28 04:49:12;;;;;;;;;9.75;9.00;;;;;21.29;50.31;98847.03;5049282;28;45419;-54
2022/07/28 04:51:38;;;;;;;;;5.00;5.00;;;;;21.27;49.91;98844.50;5047368;28;45833;-52
2022/07/28 04:54:03;;;;;;;;;7.00;6.00;;;;;21.27;50.08;98849.00;5047607;28;45602;-52
2022/07/28 04:56:28;;;;;;;;;5.25;5.25;;;;;21.27;49.28;98849.88;5045085;28;45715;-52
2022/07/28 04:58:54;;;;;;;;;6.00;5.50;;;;;21.29;49.05;98855.91;5047348;28;45473;-52
2022/07/28 05:01:20;;;;;;;;;6.00;6.00;;;;;21.32;48.91;98857.47;5042810;28;45377;-53
2022/07/28 05:03:46;;;;;;;;;7.75;6.00;;;;;21.26;49.61;98850.00;5043766;28;45429;-50
2022/07/28 05:06:11;;;;;;;;;6.25;5.00;;;;;21.21;49.41;98856.59;5040298;28;45369;-53
2022/07/28 05:08:36;;;;;;;;;5.75;5.00;;;;;21.19;49.15;98857.69;5043879;28;45448;-53
2022/07/28 05:11:02;;;;;;;;;7.00;5.25;;;;;21.20;49.61;98843.34;5050915;28;45476;-54
2022/07/28 05:13:27;;;;;;;;;5.00;5.00;;;;;21.21;49.30;98853.94;5051241;28;45421;-52
2022/07/28 05:15:52;;;;;;;;;7.75;6.00;;;;;21.19;49.66;98850.53;5050613;28;46254;-53
2022/07/28 05:18:18;;;;;;;;;6.25;6.25;;;;;21.17;49.57;98857.81;5046151;28;45492;-54
2022/07/28 05:20:43;;;;;;;;;5.25;5.00;;;;;21.14;49.97;98850.03;5050324;28;45437;-54
2022/07/28 05:23:10;;;;;;;;;6.00;6.00;;;;;21.13;49.79;98851.03;5045942;28;45366;-56
2022/07/28 05:25:36;;;;;;;;;5.25;5.25;;;;;21.16;49.74;98852.59;5053673;28;45474;-55
2022/07/28 05:28:02;;;;;;;;;7.00;6.00;;;;;21.20;50.11;98856.75;5046828;28;45436;-56
2022/07/28 05:30:28;;;;;;;;;7.00;6.50;;;;;21.23;50.06;98848.44;5052286;28;45485;-55
2022/07/28 05:32:57;;;;;;;;;6.75;5.75;;;;;21.26;49.87;98855.34;5046962;28;45400;-56
2022/07/28 05:35:23;;;;;;;;;5.50;5.50;;;;;21.28;50.00;98851.56;5050442;28;45645;-56
2022/07/28 05:37:49;;;;;;;;;6.50;6.50;;;;;21.30;50.31;98848.72;5042847;28;46019;-55
2022/07/28 05:40:14;;;;;;;;;7.00;5.75;;;;;21.31;50.05;98859.31;5046489;28;45359;-55
2022/07/28 05:42:41;;;;;;;;;7.50;7.50;;;;;21.31;49.61;98859.31;5047179;28;45456;-55
2022/07/28 05:45:09;;;;;;;;;9.00;8.75;;;;;21.33;49.64;98865.41;5047104;28;45479;-56
2022/07/28 05:47:45;;;;;;;;;6.00;6.00;;;;;21.41;50.06;98870.09;5049480;28;45421;-56
2022/07/28 05:50:11;;;;;;;;;4.25;3.00;;;;;21.47;49.19;98866.84;5040447;28;45395;-52
2022/07/28 05:52:37;;;;;;;;;6.00;5.25;;;;;21.48;49.31;98860.50;5048056;28;45364;-53
2022/07/28 05:55:05;;;;;;;;;8.00;6.00;;;;;21.50;49.87;98870.13;5043018;28;46159;-52
2022/07/28 05:57:30;;;;;;;;;8.00;8.00;;;;;21.52;49.71;98864.63;5048708;28;45537;-54
2022/07/28 05:59:56;;;;;;;;;7.00;7.00;;;;;21.49;49.80;98871.09;5044473;28;45439;-52
2022/07/28 06:02:22;;;;;;;;;5.00;5.00;;;;;21.43;50.15;98860.94;5050913;27;45512;-52
2022/07/28 06:04:47;;;;;;;;;6.25;5.75;;;;;21.40;49.36;98863.03;5044654;28;46655;-54
2022/07/28 06:07:12;;;;;;;;;6.00;6.00;;;;;21.38;49.18;98862.31;5049488;28;45401;-52
2022/07/28 06:09:38;;;;;;;;;5.50;5.50;;;;;21.38;49.32;98868.53;5044009;28;45349;-53
2022/07/28 06:12:04;;;;;;;;;7.00;7.00;;;;;21.39;49.68;98870.22;5047283;28;45504;-55
2022/07/28 06:14:29;;;;;;;;;7.00;5.75;;;;;21.37;49.45;98880.25;5049005;28;45596;-55
2022/07/28 06:16:55;;;;;;;;;7.00;6.75;;;;;21.33;49.67;98881.47;5053891;28;45469;-54
2022/07/28 06:19:20;;;;;;;;;9.00;6.00;;;;;21.30;49.72;98875.53;5065573;28;45428;-54
2022/07/28 06:21:46;;;;;;;;;7.00;7.00;;;;;21.26;49.36;98883.03;5054254;28;45516;-54
2022/07/28 06:24:12;;;;;;;;;7.50;7.00;;;;;21.26;49.71;98888.38;5049336;27;45376;-55
2022/07/28 06:26:38;;;;;;;;;6.00;6.00;;;;;21.28;49.81;98890.94;5055686;28;45403;-53
2022/07/28 06:29:05;;;;;;;;;7.25;6.75;;;;;21.30;49.49;98886.25;5048990;28;45449;-55
2022/07/28 06:31:30;;;;;;;;;7.00;6.00;;;;;21.37;49.82;98892.78;5055274;28;45439;-55
2022/07/28 06:33:56;;;;;;;;;10.00;9.00;;;;;21.43;49.73;98889.59;5048083;28;45499;-55
2022/07/28 06:36:21;;;;;;;;;7.00;7.00;;;;;21.50;49.48;98896.09;5053436;28;45637;-53
2022/07/28 06:38:47;;;;;;;;;9.00;7.75;;;;;21.54;49.42;98889.47;5046140;28;45353;-56
2022/07/28 06:41:13;;;;;;;;;7.25;7.00;;;;;21.56;50.11;98899.09;5046115;28;45395;-52
2022/07/28 06:43:38;;;;;;;;;7.75;7.00;;;;;21.59;49.84;98893.44;5046760;28;45539;-55
2022/07/28 06:46:03;;;;;;;;;8.25;8.25;;;;;21.64;49.54;98894.84;5049583;28;45523;-56
2022/07/28 06:48:29;;;;;;;;;8.00;5.00;;;;;21.67;49.88;98894.59;5049152;28;45375;-53
2022/07/28 06:50:57;;;;;;;;;8.25;6.75;;;;;21.70;50.01;98897.00;5046517;28;45584;-53
2022/07/28 06:53:22;;;;;;;;;8.25;8.25;;;;;21.71;49.69;98888.81;5043339;28;45514;-53
2022/07/28 06:55:48;;;;;;;;;8.75;8.75;;;;;21.76;49.76;98899.16;5045861;28;45448;-55
2022/07/28 06:58:13;;;;;;;;;8.25;7.75;;;;;21.81;49.69;98895.03;5049604;28;45294;-54
2022/07/28 07:00:39;;;;;;;;;8.75;8.00;;;;;21.87;49.54;98899.03;5043928;28;45604;-55
2022/07/28 07:03:04;;;;;;;;;9.75;7.00;;;;;21.92;49.30;98897.63;5050428;27;45606;-54
2022/07/28 07:05:30;;;;;;;;;8.50;7.00;;;;;21.98;48.96;98896.22;5050506;28;45455;-55
2022/07/28 07:07:56;;;;;;;;;7.00;6.75;;;;;22.04;48.86;98893.00;5051174;28;45416;-54
2022/07/28 07:10:21;;;;;;;;;7.75;7.75;;;;;22.09;48.57;98889.91;5047381;28;45420;-54
2022/07/28 07:12:47;;;;;;;;;9.00;8.00;;;;;22.14;48.55;98887.63;5052252;28;46323;-55
2022/07/28 07:15:12;;;;;;;;;7.25;7.25;;;;;22.18;49.00;98889.06;5052694;28;45493;-53
2022/07/28 07:17:38;;;;;;;;;8.50;8.25;;;;;22.23;48.92;98889.50;5049518;28;45693;-54
2022/07/28 07:20:07;;;;;;;;;7.75;7.00;;;;;22.27;48.23;98885.56;5054224;28;45516;-54
2022/07/28 07:22:32;;;;;;;;;8.25;8.25;;;;;22.31;48.88;98881.56;5050358;28;45477;-54
2022/07/28 07:25:09;;;;;;;;;7.75;7.75;;;;;22.31;48.24;98876.19;5053349;28;45438;-54
2022/07/28 07:27:34;;;;;;;;;9.00;8.25;;;;;22.30;48.11;98879.88;5049733;28;45503;-55
2022/07/28 07:30:00;;;;;;;;;9.75;9.00;;;;;22.32;48.10;98888.63;5065183;28;45433;-54
2022/07/28 07:32:25;;;;;;;;;8.00;8.00;;;;;22.31;47.94;98873.50;5050770;28;46105;-54
2022/07/28 07:34:50;;;;;;;;;6.50;4.50;;;;;22.33;47.87;98886.81;5053275;28;45403;-55
2022/07/28 07:37:16;;;;;;;;;8.00;8.00;;;;;22.33;47.79;98884.97;5053354;28;45452;-55
2022/07/28 07:39:41;;;;;;;;;7.25;7.25;;;;;22.36;48.26;98879.31;5053830;28;45530;-54
2022/07/28 07:42:07;;;;;;;;;8.25;8.00;;;;;22.40;48.38;98866.47;5051840;28;45982;-54
2022/07/28 07:44:33;;;;;;;;;6.75;6.75;;;;;22.47;47.76;98879.16;5051765;28;45400;-54
2022/07/28 07:46:58;;;;;;;;;8.75;8.75;;;;;22.53;47.93;98883.13;5053131;28;45471;-53
2022/07/28 07:49:24;;;;;;;;;7.00;6.75;;;;;22.57;47.72;98880.03;5050574;28;45562;-55
2022/07/28 07:51:49;;;;;;;;;6.50;6.50;;;;;22.61;47.31;98878.75;5054221;28;45648;-55
2022/07/28 07:54:14;;;;;;;;;6.75;6.50;;;;;22.62;46.58;98877.72;5064377;28;45793;-56
2022/07/28 07:56:40;;;;;;;;;6.75;6.75;;;;;22.61;47.00;98876.06;5055394;28;45359;-54
2022/07/28 07:59:05;;;;;;;;;8.00;8.00;;;;;22.64;46.54;98873.06;5051157;28;45293;-54
2022/07/28 08:01:30;;;;;;;;;6.00;5.50;;;;;22.70;46.13;98884.25;5054632;28;46249;-54
2022/07/28 08:03:58;;;;;;;;;7.25;6.75;;;;;22.74;46.16;98874.91;5050937;28;45496;-53
2022/07/28 08:06:23;;;;;;;;;7.75;7.75;;;;;22.79;46.72;98873.50;5054817;28;45343;-55
2022/07/28 08:08:49;;;;;;;;;9.00;7.00;;;;;22.86;46.37;98858.50;5047932;28;45641;-53
2022/07/28 08:11:14;;;;;;;;;7.50;7.00;;;;;22.95;46.06;98862.16;5054685;28;45661;-52
2022/07/28 08:13:39;;;;;;;;;7.75;7.25;;;;;23.04;46.18;98860.41;5049087;28;45523;-55
2022/07/28 08:16:05;;;;;;;;;7.00;7.00;;;;;23.09;46.25;98850.94;5054735;28;45784;-55
2022/07/28 08:18:31;;;;;;;;;8.25;8.25;;;;;23.16;46.39;98854.72;5048289;28;45404;-55
2022/07/28 08:20:56;;;;;;;;;8.00;8.00;;;;;23.23;46.55;98849.59;5054239;28;46146;-54
2022/07/28 08:23:22;;;;;;;;;7.50;7.50;;;;;23.30;45.82;98845.31;5046890;28;45477;-54
2022/07/28 08:25:47;;;;;;;;;7.50;7.00;;;;;23.33;45.92;98840.47;5053389;28;45343;-54
2022/07/28 08:28:12;;;;;;;;;10.00;10.00;;;;;23.39;45.70;98832.81;5044959;28;45523;-56
2022/07/28 08:30:38;;;;;;;;;7.25;7.25;;;;;23.44;45.94;98836.75;5051233;28;45349;-53
2022/07/28 08:33:03;;;;;;;;;7.00;7.00;;;;;23.48;45.29;98834.59;5046611;28;45639;-56
2022/07/28 08:35:29;;;;;;;;;7.00;7.00;;;;;23.51;45.06;98832.50;5053822;28;45528;-54
2022/07/28 08:37:55;;;;;;;;;5.25;5.25;;;;;23.59;45.47;98834.44;5049591;28;45446;-51
2022/07/28 08:40:20;;;;;;;;;9.00;7.25;;;;;23.69;44.91;98829.84;5052342;28;46446;-55
2022/07/28 08:42:49;;;;;;;;;7.00;7.00;;;;;23.78;44.66;98830.78;5051523;28;45387;-56
2022/07/28 08:45:15;;;;;;;;;8.00;5.75;;;;;23.86;44.58;98830.84;5045521;28;45613;-54
2022/07/28 08:47:42;;;;;;;;;8.25;7.50;;;;;23.92;44.25;98819.50;5051737;28;45597;-55
2022/07/28 08:50:09;;;;;;;;;7.50;7.00;;;;;23.99;44.41;98816.00;5044444;28;45546;-54
2022/07/28 08:52:38;;;;;;;;;9.25;7.25;;;;;24.07;43.91;98815.25;5048815;28;45433;-56
2022/07/28 08:55:06;;;;;;;;;8.25;6.00;;;;;24.16;43.91;98822.41;5053199;28;45372;-54
2022/07/28 08:57:35;;;;;;;;;6.00;6.00;;;;;24.23;43.20;98815.44;5052491;28;45498;-55
2022/07/28 09:00:01;;;;;;;;;4.50;4.50;;;;;24.28;43.18;98812.28;5050201;28;45629;-55
2022/07/28 09:02:28;;;;;;;;;6.25;6.25;;;;;24.33;42.84;98818.88;5050186;28;45542;-56
2022/07/28 09:04:55;;;;;;;;;5.75;5.75;;;;;24.41;42.66;98815.41;5046640;28;45511;-55
2022/07/28 09:07:22;;;;;;;;;8.00;6.50;;;;;24.50;43.07;98813.59;5051155;28;45507;-55
2022/07/28 09:09:48;;;;;;;;;6.25;6.25;;;;;24.58;42.44;98808.28;5043485;28;46122;-54
2022/07/28 09:12:14;;;;;;;;;6.20;6.20;;;;;24.63;42.55;98809.50;5051502;28;45605;-55
2022/07/28 09:14:39;;;;;;;;;4.25;3.75;;;;;24.70;41.87;98807.88;5049965;28;45515;-55
2022/07/28 09:17:05;;;;;;;;;6.25;6.00;;;;;24.73;42.19;98808.56;5051441;28;45502;-54
2022/07/28 09:19:31;;;;;;;;;7.00;7.00;;;;;24.78;42.07;98807.09;5044223;28;45570;-55
2022/07/28 09:21:57;;;;;;;;;6.00;6.00;;;;;24.84;41.88;98801.03;5049867;28;45645;-55
2022/07/28 09:24:31;;;;;;;;;6.75;6.50;;;;;24.93;42.33;98802.78;5046708;28;45376;-53
2022/07/28 09:26:59;;;;;;;;;5.00;5.00;;;;;25.01;41.96;98802.00;5038554;28;45575;-56
2022/07/28 09:29:25;;;;;;;;;4.50;4.00;;;;;25.12;41.79;98798.19;5049932;28;48236;-55
2022/07/28 09:31:51;;;;;;;;;5.75;5.50;;;;;25.21;41.41;98794.53;5047570;28;45527;-54
2022/07/28 09:34:17;;;;;;;;;7.50;7.00;;;;;25.28;41.56;98791.03;5048887;28;45443;-55
2022/07/28 09:36:43;;;;;;;;;8.00;7.00;;;;;25.36;41.62;98791.03;5049409;28;45463;-55
2022/07/28 09:39:09;;;;;;;;;6.00;6.00;;;;;25.45;41.73;98791.09;5045208;28;46317;-55
2022/07/28 09:41:57;;;;;;;;;6.00;5.75;;;;;25.49;41.48;98777.06;5050158;28;45496;-56
2022/07/28 09:44:24;;;;;;;;;7.00;7.00;;;;;25.53;41.25;98777.59;5048384;28;45369;-56
2022/07/28 09:46:49;;;;;;;;;4.00;4.00;;;;;25.55;41.25;98781.81;5040078;28;45462;-53
2022/07/28 09:49:15;;;;;;;;;7.25;6.75;;;;;25.61;41.45;98767.69;5049301;28;46277;-53
2022/07/28 09:51:40;;;;;;;;;8.00;7.00;;;;;25.75;41.45;98774.31;5046274;28;45412;-54
2022/07/28 09:54:10;;;;;;;;;7.25;6.00;;;;;25.87;41.05;98756.75;5050413;28;45921;-53
2022/07/28 09:56:42;;;;;;;;;6.25;5.00;;;;;26.00;40.99;98751.69;5050391;27;45442;-54
2022/07/28 09:59:08;;;;;;;;;7.00;6.75;;;;;26.11;40.88;98744.28;5050751;28;47843;-54
2022/07/28 10:01:51;;;;;;;;;7.75;7.75;;;;;26.22;40.74;98725.03;5054864;28;45450;-53
2022/07/28 10:04:34;;;;;;;;;7.75;7.75;;;;;26.34;40.64;98720.97;5053555;28;45437;-55
2022/07/28 10:07:01;;;;;;;;;5.75;5.75;;;;;26.49;40.08;98716.56;5049815;28;45713;-54
2022/07/28 10:09:27;;;;;;;;;11.00;7.50;;;;;26.65;39.27;98726.47;5052039;28;45435;-54
2022/07/28 10:11:52;;;;;;;;;6.00;5.00;;;;;26.79;39.08;98706.00;5042672;28;45409;-54
2022/07/28 10:14:20;;;;;;;;;8.00;7.75;;;;;26.90;38.89;98702.91;5049486;28;45516;-55
2022/07/28 10:16:52;;;;;;;;;6.25;6.25;;;;;27.05;38.72;98709.31;5048423;28;45501;-54
2022/07/28 10:19:17;;;;;;;;;5.75;4.25;;;;;27.20;37.83;98729.19;5047322;28;45488;-53
2022/07/28 10:21:47;;;;;;;;;6.00;6.00;;;;;27.34;36.53;98738.41;5045515;28;45903;-53
2022/07/28 10:24:20;;;;;;;;;5.75;5.75;;;;;27.47;35.75;98725.19;5049529;28;45433;-54
2022/07/28 10:26:47;;;;;;;;;5.50;4.00;;;;;27.57;34.57;98690.59;5055080;28;45404;-54
2022/07/28 10:29:19;;;;;;;;;6.50;2.25;;;;;27.66;35.19;98711.19;5051844;28;45396;-54
2022/07/28 10:32:03;;;;;;;;;5.80;5.00;;;;;27.74;35.67;98694.88;5055360;28;45309;-53
2022/07/28 10:34:44;;;;;;;;;4.25;4.25;;;;;27.89;34.85;98722.03;5053744;28;45465;-56
2022/07/28 10:37:18;;;;;;;;;5.00;5.00;;;;;27.95;34.81;98699.63;5040761;28;45477;-53
2022/07/28 10:39:50;;;;;;;;;4.50;4.50;;;;;28.06;34.82;98693.75;5048725;28;45467;-55
2022/07/28 10:42:18;;;;;;;;;4.80;4.80;;;;;28.16;34.94;98704.34;5049914;28;45468;-55
2022/07/28 10:44:45;;;;;;;;;5.00;5.00;;;;;28.25;34.31;98687.00;5047349;28;45444;-54
2022/07/28 10:47:12;;;;;;;;;4.25;3.50;;;;;28.32;34.41;98692.56;5048556;28;45548;-55
2022/07/28 10:49:40;;;;;;;;;2.00;2.00;;;;;28.41;33.36;98705.84;5051809;28;45452;-54
2022/07/28 10:52:07;;;;;;;;;5.40;5.40;;;;;28.46;33.58;98681.72;5046804;28;45369;-55
2022/07/28 10:54:41;;;;;;;;;4.75;3.50;;;;;28.54;32.58;98686.19;5053923;28;45434;-56
2022/07/28 10:57:10;;;;;;;;;4.25;4.25;;;;;28.56;32.60;98686.84;5051971;27;45459;-54
2022/07/28 10:59:57;;;;;;;;;3.00;3.00;;;;;28.62;33.04;98685.28;5054000;28;46744;-56
2022/07/28 11:02:41;;;;;;;;;3.00;2.80;;;;;28.74;33.16;98683.78;5048789;28;45489;-55
2022/07/28 11:05:25;;;;;;;;;5.50;5.50;;;;;28.90;31.91;98718.03;5045953;28;45416;-55
2022/07/28 11:07:50;;;;;;;;;3.75;3.75;;;;;28.98;32.28;98678.09;5053433;28;45455;-55
2022/07/28 11:10:17;;;;;;;;;4.50;3.00;;;;;29.03;31.97;98678.34;5050900;28;45473;-55
2022/07/28 11:12:50;;;;;;;;;4.00;3.40;;;;;29.14;32.11;98664.28;5043016;28;45463;-54
2022/07/28 11:15:31;;;;;;;;;4.00;4.00;;;;;29.24;30.83;98671.28;5042134;28;45559;-55
2022/07/28 11:18:09;;;;;;;;;4.25;4.25;;;;;29.34;31.15;98683.50;5035509;28;45352;-56
2022/07/28 11:20:49;;;;;;;;;4.25;2.25;;;;;29.40;31.11;98676.50;5044101;28;45378;-54
2022/07/28 11:23:54;;;;;;;;;3.20;3.20;;;;;29.43;31.03;98660.66;5035188;28;45444;-55
2022/07/28 11:26:22;;;;;;;;;4.25;3.00;;;;;29.48;30.29;98651.94;5035065;28;45374;-55
2022/07/28 11:28:57;;;;;;;;;1.00;1.00;;;;;29.47;30.30;98672.00;5041352;28;45500;-55
2022/07/28 11:31:44;;;;;;;;;4.00;4.00;;;;;29.47;29.96;98666.56;5053387;28;45516;-55
2022/07/28 11:34:18;;;;;;;;;4.60;4.60;;;;;29.44;30.16;98669.66;5038943;28;45345;-56
2022/07/28 11:37:02;;;;;;;;;3.25;3.00;;;;;29.47;30.33;98647.56;5053094;28;45354;-55
2022/07/28 11:39:30;;;;;;;;;5.00;4.50;;;;;29.50;29.71;98647.97;5050315;28;45552;-55
2022/07/28 11:41:55;;;;;;;;;4.00;3.50;;;;;29.51;30.34;98632.53;5044978;28;45734;-55